DAL2962 KMSP-KDCA
Flight info
| Callsign | DAL2962 |
|---|---|
| Flight time | 1h 52m |
| Altitude | 37000 |
| Route | COULT7 DLL J34 BUCKO FRDMM6 |
| Aircraft | A320/M-SDE3FGHIRWY/LB1 |
Departure
| Time | 2026-05-03 23:46 |
|---|---|
| Airport | Minneapolis–Saint Paul International Airport / Wold–Chamberlain Field (KMSP) |
Arrival
| Time | 2026-05-04 01:38 |
|---|---|
| Airport | Ronald Reagan Washington National Airport (KDCA) |
| Time | Latitude | Longitude | Altitude | Speed | Heading |
|---|---|---|---|---|---|
| 2026-05-03 23:02 | 44.88291 | -93.20418 | 825 ft | 0 kts | 210° |
| 2026-05-03 23:38 | 44.88310 | -93.20403 | 822 ft | 4 kts | 210° |
| 2026-05-03 23:38 | 44.88316 | -93.20397 | 823 ft | 0 kts | 210° |
| 2026-05-03 23:39 | 44.88316 | -93.20405 | 825 ft | 1 kts | 261° |
| 2026-05-03 23:39 | 44.88333 | -93.20393 | 823 ft | 5 kts | 37° |
| 2026-05-03 23:39 | 44.88338 | -93.20364 | 825 ft | 2 kts | 103° |
| 2026-05-03 23:40 | 44.88336 | -93.20354 | 825 ft | 0 kts | 108° |
| 2026-05-03 23:40 | 44.88330 | -93.20336 | 825 ft | 6 kts | 114° |
| 2026-05-03 23:41 | 44.88311 | -93.20287 | 825 ft | 6 kts | 118° |
| 2026-05-03 23:41 | 44.88301 | -93.20262 | 825 ft | 0 kts | 121° |
| 2026-05-03 23:41 | 44.88290 | -93.20232 | 823 ft | 4 kts | 109° |
| 2026-05-03 23:41 | 44.88296 | -93.20166 | 822 ft | 7 kts | 68° |
| 2026-05-03 23:42 | 44.88293 | -93.20069 | 825 ft | 18 kts | 115° |
| 2026-05-03 23:42 | 44.88210 | -93.19893 | 825 ft | 22 kts | 122° |
| 2026-05-03 23:42 | 44.88138 | -93.19723 | 823 ft | 19 kts | 120° |
| 2026-05-03 23:42 | 44.88074 | -93.19574 | 825 ft | 16 kts | 121° |
| 2026-05-03 23:43 | 44.88057 | -93.19518 | 825 ft | 1 kts | 97° |
| 2026-05-03 23:43 | 44.88057 | -93.19506 | 825 ft | 1 kts | 88° |
| 2026-05-03 23:43 | 44.88057 | -93.19503 | 825 ft | 1 kts | 86° |
| 2026-05-03 23:43 | 44.88080 | -93.19458 | 825 ft | 7 kts | 39° |
| 2026-05-03 23:44 | 44.88116 | -93.19420 | 823 ft | 6 kts | 33° |
| 2026-05-03 23:44 | 44.88141 | -93.19432 | 825 ft | 3 kts | 303° |
| 2026-05-03 23:44 | 44.88143 | -93.19435 | 825 ft | 0 kts | 303° |
| 2026-05-03 23:45 | 44.88171 | -93.19498 | 825 ft | 30 kts | 302° |
| 2026-05-03 23:45 | 44.88411 | -93.20059 | 824 ft | 99 kts | 301° |
| 2026-05-03 23:46 | 44.88870 | -93.21128 | 826 ft | 152 kts | 301° |
| 2026-05-03 23:46 | 44.89416 | -93.22412 | 1424 ft | 151 kts | 300° |
| 2026-05-03 23:46 | 44.89818 | -93.23217 | 1926 ft | 149 kts | 316° |
| 2026-05-03 23:46 | 44.90798 | -93.23734 | 2461 ft | 163 kts | 359° |
| 2026-05-03 23:47 | 44.91915 | -93.23097 | 2748 ft | 189 kts | 34° |
| 2026-05-03 23:47 | 44.92710 | -93.21486 | 2975 ft | 217 kts | 69° |
| 2026-05-03 23:47 | 44.93081 | -93.19299 | 3267 ft | 240 kts | 77° |
| 2026-05-03 23:47 | 44.93397 | -93.16878 | 3638 ft | 262 kts | 79° |
| 2026-05-03 23:48 | 44.93688 | -93.14243 | 4184 ft | 279 kts | 84° |
| 2026-05-03 23:48 | 44.93476 | -93.11500 | 4908 ft | 288 kts | 110° |
| 2026-05-03 23:48 | 44.92589 | -93.08968 | 5822 ft | 289 kts | 118° |
| 2026-05-03 23:48 | 44.91652 | -93.06510 | 6641 ft | 292 kts | 118° |
| 2026-05-03 23:49 | 44.90684 | -93.03954 | 7441 ft | 297 kts | 118° |
| 2026-05-03 23:49 | 44.89710 | -93.01359 | 8218 ft | 302 kts | 117° |
| 2026-05-03 23:49 | 44.88724 | -92.98718 | 9023 ft | 307 kts | 117° |
| 2026-05-03 23:49 | 44.87721 | -92.96022 | 9777 ft | 313 kts | 117° |
| 2026-05-03 23:50 | 44.86686 | -92.93228 | 10339 ft | 326 kts | 117° |
| 2026-05-03 23:50 | 44.85600 | -92.90298 | 10559 ft | 349 kts | 117° |
| 2026-05-03 23:50 | 44.84455 | -92.87206 | 10729 ft | 372 kts | 117° |
| 2026-05-03 23:50 | 44.83232 | -92.83915 | 11131 ft | 385 kts | 117° |
| 2026-05-03 23:51 | 44.81962 | -92.80508 | 11756 ft | 391 kts | 117° |
| 2026-05-03 23:51 | 44.80691 | -92.77101 | 12424 ft | 395 kts | 117° |
| 2026-05-03 23:51 | 44.79404 | -92.73656 | 13088 ft | 399 kts | 117° |
| 2026-05-03 23:51 | 44.78106 | -92.70177 | 13727 ft | 404 kts | 117° |
| 2026-05-03 23:52 | 44.76790 | -92.66662 | 14330 ft | 407 kts | 117° |
| 2026-05-03 23:52 | 44.75464 | -92.63121 | 14916 ft | 411 kts | 117° |
| 2026-05-03 23:52 | 44.74128 | -92.59559 | 15516 ft | 414 kts | 117° |
| 2026-05-03 23:52 | 44.72774 | -92.55957 | 16101 ft | 418 kts | 117° |
| 2026-05-03 23:53 | 44.71412 | -92.52337 | 16697 ft | 421 kts | 117° |
| 2026-05-03 23:53 | 44.69972 | -92.48743 | 17288 ft | 424 kts | 123° |
| 2026-05-03 23:53 | 44.68256 | -92.45339 | 17867 ft | 428 kts | 126° |
| 2026-05-03 23:53 | 44.66507 | -92.41938 | 18389 ft | 431 kts | 125° |
| 2026-05-03 23:54 | 44.64746 | -92.38507 | 18887 ft | 435 kts | 125° |
| 2026-05-03 23:54 | 44.62975 | -92.35046 | 19394 ft | 437 kts | 125° |
| 2026-05-03 23:54 | 44.61197 | -92.31573 | 19884 ft | 441 kts | 125° |
| 2026-05-03 23:54 | 44.59397 | -92.28066 | 20379 ft | 444 kts | 124° |
| 2026-05-03 23:55 | 44.57583 | -92.24545 | 20821 ft | 447 kts | 124° |
| 2026-05-03 23:55 | 44.55753 | -92.21000 | 21287 ft | 450 kts | 124° |
| 2026-05-03 23:55 | 44.53913 | -92.17443 | 21735 ft | 453 kts | 124° |
| 2026-05-03 23:55 | 44.52058 | -92.13863 | 22170 ft | 456 kts | 124° |
| 2026-05-03 23:56 | 44.50193 | -92.10265 | 22602 ft | 458 kts | 124° |
| 2026-05-03 23:56 | 44.48313 | -92.06639 | 23018 ft | 461 kts | 124° |
| 2026-05-03 23:56 | 44.46424 | -92.02996 | 23395 ft | 464 kts | 124° |
| 2026-05-03 23:56 | 44.44521 | -91.99332 | 23728 ft | 467 kts | 124° |
| 2026-05-03 23:57 | 44.42605 | -91.95646 | 24067 ft | 469 kts | 124° |
| 2026-05-03 23:57 | 44.40685 | -91.91955 | 24405 ft | 471 kts | 123° |
| 2026-05-03 23:57 | 44.38724 | -91.88193 | 24773 ft | 472 kts | 123° |
| 2026-05-03 23:57 | 44.36873 | -91.84410 | 25092 ft | 472 kts | 117° |
| 2026-05-03 23:58 | 44.35306 | -91.80383 | 25403 ft | 472 kts | 114° |
| 2026-05-03 23:58 | 44.33764 | -91.76320 | 25723 ft | 474 kts | 115° |
| 2026-05-03 23:58 | 44.32218 | -91.72252 | 26041 ft | 476 kts | 114° |
| 2026-05-03 23:58 | 44.30662 | -91.68159 | 26344 ft | 477 kts | 114° |
| 2026-05-03 23:59 | 44.29103 | -91.64059 | 26640 ft | 479 kts | 114° |
| 2026-05-03 23:59 | 44.27541 | -91.59960 | 26926 ft | 480 kts | 114° |
| 2026-05-03 23:59 | 44.25969 | -91.55842 | 27179 ft | 482 kts | 114° |
| 2026-05-03 23:59 | 44.24388 | -91.51712 | 27458 ft | 483 kts | 114° |
| 2026-05-04 00:00 | 44.22797 | -91.47565 | 27709 ft | 485 kts | 114° |
| 2026-05-04 00:00 | 44.21202 | -91.43409 | 27949 ft | 486 kts | 114° |
| 2026-05-04 00:00 | 44.19605 | -91.39255 | 28215 ft | 487 kts | 114° |
| 2026-05-04 00:00 | 44.18010 | -91.35116 | 28547 ft | 485 kts | 114° |
| 2026-05-04 00:01 | 44.16409 | -91.30972 | 28906 ft | 484 kts | 114° |
| 2026-05-04 00:01 | 44.14818 | -91.26860 | 29263 ft | 482 kts | 114° |
| 2026-05-04 00:01 | 44.13227 | -91.22747 | 29635 ft | 481 kts | 114° |
| 2026-05-04 00:01 | 44.11642 | -91.18654 | 29961 ft | 480 kts | 114° |
| 2026-05-04 00:02 | 44.10059 | -91.14572 | 30217 ft | 481 kts | 114° |
| 2026-05-04 00:02 | 44.08468 | -91.10477 | 30453 ft | 481 kts | 114° |
| 2026-05-04 00:02 | 44.06869 | -91.06368 | 30695 ft | 482 kts | 115° |
| 2026-05-04 00:02 | 44.05278 | -91.02276 | 30932 ft | 483 kts | 115° |
| 2026-05-04 00:03 | 44.03680 | -90.98164 | 31178 ft | 484 kts | 115° |
| 2026-05-04 00:03 | 44.02074 | -90.94040 | 31411 ft | 485 kts | 115° |
| 2026-05-04 00:03 | 44.00469 | -90.89929 | 31629 ft | 486 kts | 116° |
| 2026-05-04 00:03 | 43.98848 | -90.85801 | 31867 ft | 487 kts | 116° |
| 2026-05-04 00:04 | 43.97226 | -90.81684 | 32110 ft | 487 kts | 116° |
| 2026-05-04 00:04 | 43.95593 | -90.77539 | 32358 ft | 488 kts | 116° |
| 2026-05-04 00:04 | 43.93964 | -90.73404 | 32629 ft | 488 kts | 116° |
| 2026-05-04 00:04 | 43.92314 | -90.69215 | 32892 ft | 489 kts | 116° |
| 2026-05-04 00:05 | 43.90680 | -90.65076 | 33146 ft | 489 kts | 117° |
| 2026-05-04 00:05 | 43.89049 | -90.60949 | 33399 ft | 490 kts | 117° |
| 2026-05-04 00:05 | 43.87407 | -90.56804 | 33659 ft | 490 kts | 117° |
| 2026-05-04 00:05 | 43.85765 | -90.52662 | 33882 ft | 490 kts | 117° |
| 2026-05-04 00:06 | 43.84124 | -90.48530 | 34096 ft | 490 kts | 117° |
| 2026-05-04 00:06 | 43.82481 | -90.44387 | 34298 ft | 490 kts | 117° |
| 2026-05-04 00:06 | 43.80837 | -90.40250 | 34526 ft | 490 kts | 117° |
| 2026-05-04 00:06 | 43.79192 | -90.36123 | 34761 ft | 490 kts | 117° |
| 2026-05-04 00:07 | 43.77543 | -90.31994 | 34966 ft | 490 kts | 117° |
| 2026-05-04 00:07 | 43.75896 | -90.27872 | 35155 ft | 490 kts | 117° |
| 2026-05-04 00:07 | 43.74244 | -90.23746 | 35340 ft | 490 kts | 117° |
| 2026-05-04 00:07 | 43.72591 | -90.19628 | 35509 ft | 490 kts | 117° |
| 2026-05-04 00:08 | 43.70935 | -90.15506 | 35699 ft | 491 kts | 118° |
| 2026-05-04 00:08 | 43.69274 | -90.11378 | 35866 ft | 491 kts | 118° |
| 2026-05-04 00:08 | 43.67616 | -90.07265 | 36011 ft | 491 kts | 118° |
| 2026-05-04 00:08 | 43.65947 | -90.03139 | 36163 ft | 492 kts | 118° |
| 2026-05-04 00:09 | 43.64275 | -89.99015 | 36341 ft | 492 kts | 118° |
| 2026-05-04 00:09 | 43.62608 | -89.94899 | 36475 ft | 492 kts | 118° |
| 2026-05-04 00:09 | 43.60937 | -89.90765 | 36646 ft | 492 kts | 118° |
| 2026-05-04 00:09 | 43.59270 | -89.86638 | 36738 ft | 494 kts | 118° |
| 2026-05-04 00:10 | 43.55898 | -89.78337 | 36739 ft | 496 kts | 117° |
| 2026-05-04 00:10 | 43.53170 | -89.69636 | 36739 ft | 495 kts | 109° |
| 2026-05-04 00:11 | 43.50652 | -89.60808 | 36737 ft | 495 kts | 109° |
| 2026-05-04 00:11 | 43.48121 | -89.51989 | 36734 ft | 495 kts | 110° |
| 2026-05-04 00:12 | 43.45577 | -89.43186 | 36731 ft | 495 kts | 110° |
| 2026-05-04 00:12 | 43.43009 | -89.34323 | 36730 ft | 496 kts | 110° |
| 2026-05-04 00:13 | 43.40448 | -89.25507 | 36723 ft | 496 kts | 110° |
| 2026-05-04 00:13 | 43.38310 | -89.18186 | 36737 ft | 496 kts | 110° |
| 2026-05-04 00:14 | 43.35315 | -89.07897 | 36730 ft | 496 kts | 110° |
| 2026-05-04 00:14 | 43.32742 | -88.99094 | 36745 ft | 497 kts | 110° |
| 2026-05-04 00:15 | 43.30152 | -88.90303 | 36734 ft | 497 kts | 110° |
| 2026-05-04 00:15 | 43.27552 | -88.81522 | 36753 ft | 497 kts | 110° |
| 2026-05-04 00:16 | 43.24950 | -88.72750 | 36748 ft | 497 kts | 110° |
| 2026-05-04 00:16 | 43.22335 | -88.63953 | 36744 ft | 497 kts | 110° |
| 2026-05-04 00:17 | 43.19718 | -88.55180 | 36725 ft | 498 kts | 110° |
| 2026-05-04 00:17 | 43.17095 | -88.46398 | 36757 ft | 498 kts | 110° |
| 2026-05-04 00:18 | 43.14459 | -88.37618 | 36768 ft | 499 kts | 111° |
| 2026-05-04 00:18 | 43.12288 | -88.30236 | 36769 ft | 498 kts | 106° |
| 2026-05-04 00:19 | 43.11226 | -88.24167 | 36766 ft | 494 kts | 95° |
| 2026-05-04 00:19 | 43.10899 | -88.21033 | 36766 ft | 493 kts | 95° |
| 2026-05-04 00:19 | 43.09919 | -88.11737 | 36765 ft | 494 kts | 95° |
| 2026-05-04 00:20 | 43.08916 | -88.02437 | 36783 ft | 494 kts | 95° |
| 2026-05-04 00:20 | 43.07906 | -87.93145 | 36781 ft | 494 kts | 96° |
| 2026-05-04 00:21 | 43.06892 | -87.83857 | 36760 ft | 494 kts | 96° |
| 2026-05-04 00:21 | 43.05872 | -87.74580 | 36759 ft | 494 kts | 96° |
| 2026-05-04 00:22 | 43.04838 | -87.65298 | 36768 ft | 494 kts | 96° |
| 2026-05-04 00:22 | 43.03797 | -87.56021 | 36764 ft | 494 kts | 96° |
| 2026-05-04 00:23 | 43.02758 | -87.46748 | 36768 ft | 494 kts | 96° |
| 2026-05-04 00:23 | 43.01705 | -87.37448 | 36771 ft | 494 kts | 96° |
| 2026-05-04 00:24 | 43.00636 | -87.28171 | 36785 ft | 494 kts | 96° |
| 2026-05-04 00:24 | 42.99558 | -87.18841 | 36781 ft | 494 kts | 96° |
| 2026-05-04 00:25 | 42.98484 | -87.09567 | 36775 ft | 494 kts | 96° |
| 2026-05-04 00:25 | 42.97405 | -87.00298 | 36758 ft | 495 kts | 96° |
| 2026-05-04 00:26 | 42.96312 | -86.91020 | 36777 ft | 495 kts | 97° |
| 2026-05-04 00:26 | 42.95213 | -86.81741 | 36778 ft | 495 kts | 97° |
| 2026-05-04 00:27 | 42.94098 | -86.72454 | 36782 ft | 496 kts | 97° |
| 2026-05-04 00:27 | 42.92976 | -86.63167 | 36780 ft | 496 kts | 97° |
| 2026-05-04 00:28 | 42.91850 | -86.53894 | 36797 ft | 496 kts | 97° |
| 2026-05-04 00:28 | 42.90721 | -86.44628 | 36792 ft | 496 kts | 97° |
| 2026-05-04 00:29 | 42.89587 | -86.35362 | 36792 ft | 496 kts | 97° |
| 2026-05-04 00:29 | 42.88439 | -86.26082 | 36798 ft | 496 kts | 97° |
| 2026-05-04 00:30 | 42.87281 | -86.16819 | 36844 ft | 496 kts | 97° |
| 2026-05-04 00:30 | 42.86120 | -86.07548 | 36833 ft | 496 kts | 98° |
| 2026-05-04 00:31 | 42.84948 | -85.98287 | 36827 ft | 496 kts | 98° |
| 2026-05-04 00:31 | 42.83768 | -85.89006 | 36821 ft | 497 kts | 98° |
| 2026-05-04 00:32 | 42.82585 | -85.79738 | 36836 ft | 497 kts | 98° |
| 2026-05-04 00:32 | 42.81388 | -85.70468 | 36846 ft | 497 kts | 98° |
| 2026-05-04 00:33 | 42.79567 | -85.56513 | 36846 ft | 497 kts | 98° |
| 2026-05-04 00:34 | 42.77835 | -85.47425 | 36843 ft | 499 kts | 112° |
| 2026-05-04 00:34 | 42.74881 | -85.38879 | 36859 ft | 499 kts | 115° |
| 2026-05-04 00:35 | 42.71887 | -85.30345 | 36853 ft | 500 kts | 115° |
| 2026-05-04 00:35 | 42.68896 | -85.21820 | 36872 ft | 500 kts | 115° |
| 2026-05-04 00:36 | 42.65884 | -85.13296 | 36870 ft | 500 kts | 115° |
| 2026-05-04 00:36 | 42.62865 | -85.04771 | 36858 ft | 501 kts | 115° |
| 2026-05-04 00:37 | 42.59833 | -84.96239 | 36864 ft | 501 kts | 116° |
| 2026-05-04 00:37 | 42.56796 | -84.87734 | 36864 ft | 501 kts | 116° |
| 2026-05-04 00:38 | 42.53750 | -84.79221 | 36860 ft | 502 kts | 116° |
| 2026-05-04 00:38 | 42.50680 | -84.70659 | 36865 ft | 502 kts | 116° |
| 2026-05-04 00:39 | 42.47642 | -84.62208 | 36871 ft | 502 kts | 116° |
| 2026-05-04 00:39 | 42.44560 | -84.53667 | 36881 ft | 502 kts | 116° |
| 2026-05-04 00:40 | 42.41490 | -84.45167 | 36877 ft | 502 kts | 116° |
| 2026-05-04 00:40 | 42.38413 | -84.36690 | 36927 ft | 502 kts | 116° |
| 2026-05-04 00:41 | 42.35323 | -84.28217 | 36926 ft | 502 kts | 116° |
| 2026-05-04 00:41 | 42.32237 | -84.19768 | 36933 ft | 502 kts | 116° |
| 2026-05-04 00:42 | 42.29139 | -84.11310 | 36937 ft | 502 kts | 116° |
| 2026-05-04 00:42 | 42.26049 | -84.02893 | 36931 ft | 501 kts | 116° |
| 2026-05-04 00:43 | 42.22937 | -83.94457 | 36917 ft | 501 kts | 117° |
| 2026-05-04 00:43 | 42.19821 | -83.86046 | 36925 ft | 501 kts | 117° |
| 2026-05-04 00:44 | 42.16706 | -83.77646 | 36936 ft | 501 kts | 117° |
| 2026-05-04 00:44 | 42.13588 | -83.69245 | 36932 ft | 501 kts | 117° |
| 2026-05-04 00:45 | 42.10486 | -83.60924 | 36925 ft | 500 kts | 117° |
| 2026-05-04 00:45 | 42.07355 | -83.52558 | 36933 ft | 500 kts | 117° |
| 2026-05-04 00:46 | 42.04054 | -83.44318 | 36935 ft | 499 kts | 126° |
| 2026-05-04 00:46 | 42.00077 | -83.36696 | 36923 ft | 499 kts | 127° |
| 2026-05-04 00:47 | 41.96051 | -83.29023 | 36928 ft | 499 kts | 127° |
| 2026-05-04 00:47 | 41.92055 | -83.21402 | 36932 ft | 499 kts | 127° |
| 2026-05-04 00:48 | 41.88056 | -83.13795 | 36935 ft | 499 kts | 127° |
| 2026-05-04 00:48 | 41.84055 | -83.06200 | 36936 ft | 498 kts | 127° |
| 2026-05-04 00:49 | 41.80049 | -82.98629 | 36952 ft | 498 kts | 127° |
| 2026-05-04 00:49 | 41.76037 | -82.91061 | 36929 ft | 498 kts | 127° |
| 2026-05-04 00:50 | 41.72053 | -82.83557 | 36947 ft | 498 kts | 127° |
| 2026-05-04 00:50 | 41.67989 | -82.75937 | 36965 ft | 498 kts | 128° |
| 2026-05-04 00:51 | 41.63958 | -82.68394 | 36966 ft | 498 kts | 127° |
| 2026-05-04 00:51 | 41.59935 | -82.60854 | 36969 ft | 498 kts | 128° |
| 2026-05-04 00:52 | 41.55891 | -82.53333 | 36971 ft | 498 kts | 128° |
| 2026-05-04 00:52 | 41.52501 | -82.47051 | 36950 ft | 498 kts | 128° |
| 2026-05-04 00:53 | 41.47794 | -82.38324 | 36964 ft | 499 kts | 128° |
| 2026-05-04 00:53 | 41.44390 | -82.32044 | 36968 ft | 499 kts | 128° |
| 2026-05-04 00:54 | 41.40327 | -82.24534 | 36966 ft | 499 kts | 128° |
| 2026-05-04 00:54 | 41.36148 | -82.17169 | 36966 ft | 496 kts | 136° |
| 2026-05-04 00:55 | 41.30966 | -82.11228 | 36969 ft | 491 kts | 146° |
| 2026-05-04 00:55 | 41.25562 | -82.05696 | 36955 ft | 491 kts | 146° |
| 2026-05-04 00:56 | 41.20161 | -82.00136 | 36971 ft | 491 kts | 146° |
| 2026-05-04 00:56 | 41.14741 | -81.94597 | 36991 ft | 491 kts | 146° |
| 2026-05-04 00:57 | 41.09312 | -81.89080 | 37002 ft | 492 kts | 146° |
| 2026-05-04 00:57 | 41.03894 | -81.83566 | 36970 ft | 492 kts | 147° |
| 2026-05-04 00:58 | 40.98463 | -81.78034 | 36976 ft | 492 kts | 147° |
| 2026-05-04 00:58 | 40.92981 | -81.72497 | 36982 ft | 492 kts | 147° |
| 2026-05-04 00:59 | 40.87543 | -81.67000 | 36987 ft | 493 kts | 147° |
| 2026-05-04 00:59 | 40.82104 | -81.61497 | 36973 ft | 493 kts | 147° |
| 2026-05-04 01:00 | 40.76654 | -81.56008 | 37002 ft | 493 kts | 147° |
| 2026-05-04 01:00 | 40.71189 | -81.50527 | 37009 ft | 493 kts | 147° |
| 2026-05-04 01:01 | 40.65724 | -81.45054 | 37015 ft | 493 kts | 147° |
| 2026-05-04 01:01 | 40.60259 | -81.39586 | 37019 ft | 493 kts | 147° |
| 2026-05-04 01:02 | 40.54794 | -81.34136 | 37003 ft | 493 kts | 148° |
| 2026-05-04 01:02 | 40.49321 | -81.28682 | 37008 ft | 494 kts | 148° |
| 2026-05-04 01:03 | 40.43841 | -81.23236 | 37016 ft | 494 kts | 148° |
| 2026-05-04 01:03 | 40.38366 | -81.17805 | 37024 ft | 493 kts | 148° |
| 2026-05-04 01:04 | 40.32884 | -81.12374 | 37032 ft | 494 kts | 148° |
| 2026-05-04 01:04 | 40.27402 | -81.06954 | 37038 ft | 493 kts | 148° |
| 2026-05-04 01:05 | 40.21922 | -81.01552 | 37033 ft | 493 kts | 148° |
| 2026-05-04 01:05 | 40.16430 | -80.96145 | 37031 ft | 493 kts | 148° |
| 2026-05-04 01:06 | 40.10949 | -80.90763 | 37003 ft | 493 kts | 148° |
| 2026-05-04 01:06 | 40.05455 | -80.85389 | 37023 ft | 494 kts | 148° |
| 2026-05-04 01:07 | 40.00142 | -80.79561 | 37026 ft | 500 kts | 137° |
| 2026-05-04 01:07 | 39.95398 | -80.72913 | 37028 ft | 501 kts | 137° |
| 2026-05-04 01:08 | 39.90630 | -80.66291 | 37049 ft | 501 kts | 137° |
| 2026-05-04 01:08 | 39.85851 | -80.59690 | 37012 ft | 501 kts | 137° |
| 2026-05-04 01:09 | 39.81080 | -80.53099 | 37022 ft | 501 kts | 137° |
| 2026-05-04 01:09 | 39.76306 | -80.46510 | 37041 ft | 500 kts | 137° |
| 2026-05-04 01:10 | 39.71533 | -80.39935 | 37046 ft | 500 kts | 137° |
| 2026-05-04 01:10 | 39.66762 | -80.33377 | 37051 ft | 500 kts | 137° |
| 2026-05-04 01:11 | 39.61986 | -80.26822 | 37021 ft | 499 kts | 139° |
| 2026-05-04 01:11 | 39.57218 | -80.20289 | 37044 ft | 499 kts | 138° |
| 2026-05-04 01:11 | 39.54831 | -80.17024 | 36832 ft | 498 kts | 139° |
| 2026-05-04 01:12 | 39.52416 | -80.13734 | 36573 ft | 498 kts | 139° |
| 2026-05-04 01:12 | 39.50029 | -80.10485 | 36319 ft | 498 kts | 139° |
| 2026-05-04 01:12 | 39.47645 | -80.07240 | 36071 ft | 498 kts | 139° |
| 2026-05-04 01:12 | 39.45250 | -80.03987 | 35823 ft | 499 kts | 139° |
| 2026-05-04 01:13 | 39.42857 | -80.00739 | 35586 ft | 499 kts | 139° |
| 2026-05-04 01:13 | 39.40454 | -79.97476 | 35346 ft | 500 kts | 139° |
| 2026-05-04 01:13 | 39.38052 | -79.94221 | 34933 ft | 501 kts | 139° |
| 2026-05-04 01:13 | 39.35623 | -79.90939 | 33770 ft | 510 kts | 140° |
| 2026-05-04 01:14 | 39.33282 | -79.87447 | 32628 ft | 520 kts | 131° |
| 2026-05-04 01:14 | 39.31334 | -79.83475 | 31619 ft | 528 kts | 121° |
| 2026-05-04 01:14 | 39.29877 | -79.79137 | 31206 ft | 527 kts | 111° |
| 2026-05-04 01:14 | 39.28908 | -79.74576 | 31024 ft | 528 kts | 102° |
| 2026-05-04 01:15 | 39.28392 | -79.69872 | 30901 ft | 530 kts | 96° |
| 2026-05-04 01:15 | 39.27990 | -79.65149 | 30665 ft | 530 kts | 96° |
| 2026-05-04 01:15 | 39.27607 | -79.60408 | 30418 ft | 530 kts | 96° |
| 2026-05-04 01:15 | 39.27235 | -79.55675 | 30176 ft | 531 kts | 95° |
| 2026-05-04 01:16 | 39.26866 | -79.50938 | 29884 ft | 531 kts | 95° |
| 2026-05-04 01:16 | 39.26494 | -79.46200 | 29599 ft | 531 kts | 95° |
| 2026-05-04 01:16 | 39.26115 | -79.41465 | 29323 ft | 531 kts | 96° |
| 2026-05-04 01:16 | 39.25728 | -79.36715 | 28818 ft | 532 kts | 96° |
| 2026-05-04 01:17 | 39.25344 | -79.31971 | 28269 ft | 532 kts | 95° |
| 2026-05-04 01:17 | 39.24961 | -79.27280 | 27931 ft | 518 kts | 96° |
| 2026-05-04 01:17 | 39.24577 | -79.22721 | 27663 ft | 503 kts | 96° |
| 2026-05-04 01:17 | 39.24191 | -79.18304 | 27364 ft | 491 kts | 96° |
| 2026-05-04 01:18 | 39.23809 | -79.13940 | 26841 ft | 485 kts | 96° |
| 2026-05-04 01:18 | 39.23436 | -79.09649 | 26341 ft | 480 kts | 96° |
| 2026-05-04 01:18 | 39.23068 | -79.05379 | 25771 ft | 476 kts | 96° |
| 2026-05-04 01:18 | 39.22709 | -79.01157 | 25223 ft | 472 kts | 96° |
| 2026-05-04 01:19 | 39.22350 | -78.96970 | 24758 ft | 467 kts | 96° |
| 2026-05-04 01:19 | 39.21980 | -78.92819 | 24187 ft | 465 kts | 96° |
| 2026-05-04 01:19 | 39.21587 | -78.88659 | 23759 ft | 459 kts | 97° |
| 2026-05-04 01:19 | 39.21186 | -78.84575 | 23171 ft | 456 kts | 97° |
| 2026-05-04 01:20 | 39.20788 | -78.80563 | 22736 ft | 450 kts | 97° |
| 2026-05-04 01:20 | 39.20388 | -78.76556 | 22088 ft | 448 kts | 97° |
| 2026-05-04 01:20 | 39.19999 | -78.72632 | 21318 ft | 437 kts | 97° |
| 2026-05-04 01:20 | 39.19620 | -78.68779 | 20802 ft | 429 kts | 97° |
| 2026-05-04 01:21 | 39.19249 | -78.64973 | 20543 ft | 427 kts | 97° |
| 2026-05-04 01:21 | 39.18880 | -78.61184 | 20151 ft | 428 kts | 97° |
| 2026-05-04 01:21 | 39.18506 | -78.57383 | 19678 ft | 425 kts | 97° |
| 2026-05-04 01:21 | 39.18130 | -78.53611 | 19212 ft | 422 kts | 97° |
| 2026-05-04 01:22 | 39.17760 | -78.49891 | 18832 ft | 417 kts | 97° |
| 2026-05-04 01:22 | 39.17390 | -78.46189 | 18357 ft | 415 kts | 98° |
| 2026-05-04 01:22 | 39.17023 | -78.42530 | 17917 ft | 410 kts | 98° |
| 2026-05-04 01:22 | 39.16654 | -78.38900 | 17446 ft | 406 kts | 98° |
| 2026-05-04 01:23 | 39.16109 | -78.35376 | 16799 ft | 396 kts | 108° |
| 2026-05-04 01:23 | 39.15268 | -78.32030 | 16464 ft | 392 kts | 109° |
| 2026-05-04 01:23 | 39.14437 | -78.28694 | 16101 ft | 390 kts | 109° |
| 2026-05-04 01:23 | 39.13622 | -78.25381 | 15747 ft | 387 kts | 108° |
| 2026-05-04 01:24 | 39.12810 | -78.22081 | 15381 ft | 384 kts | 109° |
| 2026-05-04 01:24 | 39.12002 | -78.18822 | 15031 ft | 382 kts | 109° |
| 2026-05-04 01:24 | 39.11455 | -78.16627 | 14796 ft | 380 kts | 109° |
| 2026-05-04 01:24 | 39.10648 | -78.13404 | 14444 ft | 376 kts | 108° |
| 2026-05-04 01:25 | 39.09849 | -78.10203 | 14095 ft | 373 kts | 108° |
| 2026-05-04 01:25 | 39.09052 | -78.07041 | 13734 ft | 370 kts | 109° |
| 2026-05-04 01:25 | 39.08253 | -78.03904 | 13381 ft | 368 kts | 109° |
| 2026-05-04 01:25 | 39.07455 | -78.00786 | 13039 ft | 366 kts | 109° |
| 2026-05-04 01:26 | 39.06659 | -77.97685 | 12704 ft | 363 kts | 109° |
| 2026-05-04 01:26 | 39.05872 | -77.94612 | 12364 ft | 360 kts | 109° |
| 2026-05-04 01:26 | 39.05100 | -77.91606 | 12205 ft | 348 kts | 109° |
| 2026-05-04 01:26 | 39.04360 | -77.88726 | 12073 ft | 328 kts | 109° |
| 2026-05-04 01:27 | 39.03649 | -77.85957 | 11981 ft | 324 kts | 109° |
| 2026-05-04 01:27 | 39.02943 | -77.83221 | 11742 ft | 322 kts | 109° |
| 2026-05-04 01:27 | 39.02240 | -77.80498 | 11485 ft | 319 kts | 109° |
| 2026-05-04 01:27 | 39.01542 | -77.77798 | 11222 ft | 317 kts | 109° |
| 2026-05-04 01:28 | 39.00849 | -77.75122 | 10965 ft | 316 kts | 109° |
| 2026-05-04 01:28 | 39.00156 | -77.72443 | 10700 ft | 314 kts | 109° |
| 2026-05-04 01:28 | 38.99471 | -77.69794 | 10438 ft | 313 kts | 109° |
| 2026-05-04 01:28 | 38.98790 | -77.67156 | 10178 ft | 308 kts | 109° |
| 2026-05-04 01:29 | 38.98117 | -77.64570 | 9908 ft | 303 kts | 110° |
| 2026-05-04 01:29 | 38.97399 | -77.62025 | 9491 ft | 303 kts | 112° |
| 2026-05-04 01:29 | 38.96654 | -77.59509 | 9116 ft | 296 kts | 112° |
| 2026-05-04 01:29 | 38.95904 | -77.57023 | 8730 ft | 294 kts | 112° |
| 2026-05-04 01:30 | 38.95199 | -77.54607 | 8393 ft | 292 kts | 107° |
| 2026-05-04 01:30 | 38.94885 | -77.52022 | 8035 ft | 291 kts | 90° |
| 2026-05-04 01:30 | 38.95134 | -77.49469 | 7686 ft | 286 kts | 73° |
| 2026-05-04 01:30 | 38.95844 | -77.47099 | 7268 ft | 281 kts | 65° |
| 2026-05-04 01:31 | 38.96619 | -77.44806 | 6651 ft | 280 kts | 65° |
| 2026-05-04 01:31 | 38.97384 | -77.42519 | 6033 ft | 277 kts | 65° |
| 2026-05-04 01:31 | 38.98134 | -77.40261 | 5422 ft | 273 kts | 65° |
| 2026-05-04 01:31 | 38.98875 | -77.38027 | 5062 ft | 269 kts | 65° |
| 2026-05-04 01:32 | 38.99610 | -77.35814 | 4981 ft | 269 kts | 65° |
| 2026-05-04 01:32 | 39.00350 | -77.33592 | 4997 ft | 271 kts | 65° |
| 2026-05-04 01:32 | 39.01098 | -77.31351 | 4612 ft | 275 kts | 65° |
| 2026-05-04 01:32 | 39.01848 | -77.29117 | 4191 ft | 266 kts | 65° |
| 2026-05-04 01:33 | 39.02488 | -77.26952 | 3820 ft | 253 kts | 77° |
| 2026-05-04 01:33 | 39.02580 | -77.24753 | 3486 ft | 245 kts | 98° |
| 2026-05-04 01:33 | 39.02087 | -77.22675 | 3168 ft | 242 kts | 120° |
| 2026-05-04 01:33 | 39.01099 | -77.20998 | 3099 ft | 231 kts | 139° |
| 2026-05-04 01:34 | 38.99956 | -77.19623 | 3006 ft | 220 kts | 139° |
| 2026-05-04 01:34 | 38.98860 | -77.18278 | 2788 ft | 212 kts | 138° |
| 2026-05-04 01:34 | 38.97839 | -77.17002 | 2775 ft | 201 kts | 138° |
| 2026-05-04 01:34 | 38.96853 | -77.15764 | 2715 ft | 197 kts | 138° |
| 2026-05-04 01:35 | 38.95860 | -77.14562 | 2559 ft | 195 kts | 140° |
| 2026-05-04 01:35 | 38.94871 | -77.13453 | 2344 ft | 181 kts | 142° |
| 2026-05-04 01:35 | 38.93924 | -77.12416 | 2113 ft | 168 kts | 143° |
| 2026-05-04 01:35 | 38.93020 | -77.11583 | 1906 ft | 154 kts | 156° |
| 2026-05-04 01:36 | 38.92105 | -77.10992 | 1713 ft | 148 kts | 157° |
| 2026-05-04 01:36 | 38.91227 | -77.10275 | 1471 ft | 147 kts | 139° |
| 2026-05-04 01:36 | 38.90636 | -77.09218 | 1265 ft | 146 kts | 113° |
| 2026-05-04 01:36 | 38.90356 | -77.07968 | 1108 ft | 146 kts | 107° |
| 2026-05-04 01:37 | 38.89843 | -77.06874 | 957 ft | 143 kts | 136° |
| 2026-05-04 01:37 | 38.89142 | -77.05978 | 755 ft | 142 kts | 137° |
| 2026-05-04 01:37 | 38.88438 | -77.05073 | 563 ft | 140 kts | 136° |
| 2026-05-04 01:37 | 38.87719 | -77.04243 | 387 ft | 138 kts | 151° |
| 2026-05-04 01:38 | 38.86965 | -77.03955 | 231 ft | 135 kts | 175° |
| 2026-05-04 01:38 | 38.86051 | -77.03867 | 40 ft | 133 kts | 177° |
| 2026-05-04 01:38 | 38.85293 | -77.03792 | 23 ft | 66 kts | 175° |
| 2026-05-04 01:38 | 38.85013 | -77.03763 | 24 ft | 34 kts | 175° |
| 2026-05-04 01:39 | 38.84885 | -77.03835 | 23 ft | 12 kts | 263° |
| 2026-05-04 01:39 | 38.84888 | -77.03935 | 24 ft | 11 kts | 299° |
| 2026-05-04 01:39 | 38.84952 | -77.03958 | 24 ft | 9 kts | 357° |
| 2026-05-04 01:39 | 38.85013 | -77.03963 | 26 ft | 8 kts | 356° |
| 2026-05-04 01:40 | 38.85066 | -77.03967 | 24 ft | 7 kts | 356° |
| 2026-05-04 01:40 | 38.85113 | -77.03972 | 24 ft | 6 kts | 355° |
| 2026-05-04 01:40 | 38.85154 | -77.03976 | 24 ft | 5 kts | 355° |
| 2026-05-04 01:40 | 38.85202 | -77.03980 | 24 ft | 10 kts | 356° |
| 2026-05-04 01:41 | 38.85254 | -77.03986 | 24 ft | 6 kts | 355° |
| 2026-05-04 01:41 | 38.85279 | -77.04000 | 25 ft | 3 kts | 316° |
| 2026-05-04 01:41 | 38.85295 | -77.04026 | 24 ft | 3 kts | 289° |
| 2026-05-04 01:41 | 38.85285 | -77.04048 | 24 ft | 3 kts | 228° |
| 2026-05-04 01:42 | 38.85270 | -77.04065 | 25 ft | 3 kts | 223° |
| 2026-05-04 01:42 | 38.85261 | -77.04076 | 25 ft | 0 kts | 223° |